Main page
METAR-TAF:

METAR-TAF

Airports :

Kerry Airport

Killarney, Ireland

latitude: 52-10-51N, longitude: 9-31-26W, elevation: 34 m

Current weather observation

The report was made 10 hours and 8 minutes ago, at 18:30 UTC
Wind 7 kt from the North/Northwest, varying between West/Northwest and North/Northeast
Temperature 18°C
Humidity 73%
Pressure 1018 hPa
Visibility 10 km or more
Few clouds at a height of 4000 ft

METAR: EIKY 211830Z 33007KT 290V020 9999 FEW040 18/13 Q1018

Time: 05:38 (04:38 UTC)

Forecast

The report was made 11 hours and 38 minutes ago, at 17:00 UTC
Forecast valid from 21 at 18 UTC to 21 at 21 UTC
Wind 10 kt from the Northwest
Visibility 10 km or more
Scattered clouds at a height of 2000 ft

TAF: EIKY 211700Z 2118/2121 32010KT 9999 SCT020

Weather observations and forecasts of more than 4000 airports (METAR and TAF reports).

The available stations are represented by yellow and red dots on the map.

Hover mouse over dot to see the name of the station.

Then click to see weather observations and forecasts.

To change the map : click on the green buttons with a black cross to zoom in, on the green button with a dash to zoom out, or on the green arrows for adjacent maps.


METAR-TAF: